sensor_id;sensor_type;location;lat;lon;timestamp;temperature;humidity
16247;DHT22;8231;50.866;7.944;2022-07-22T00:01:36;16.90;99.90
16247;DHT22;8231;50.866;7.944;2022-07-22T00:04:04;16.90;99.90
16247;DHT22;8231;50.866;7.944;2022-07-22T00:06:33;16.90;99.90
16247;DHT22;8231;50.866;7.944;2022-07-22T00:09:01;16.90;99.90
16247;DHT22;8231;50.866;7.944;2022-07-22T00:11:29;16.90;99.90
16247;DHT22;8231;50.866;7.944;2022-07-22T00:13:57;16.90;99.90
16247;DHT22;8231;50.866;7.944;2022-07-22T00:16:27;16.80;99.90
16247;DHT22;8231;50.866;7.944;2022-07-22T00:18:55;16.80;99.90
16247;DHT22;8231;50.866;7.944;2022-07-22T00:21:24;16.80;99.90
16247;DHT22;8231;50.866;7.944;2022-07-22T00:23:52;16.80;99.90
16247;DHT22;8231;50.866;7.944;2022-07-22T00:26:20;16.80;99.90
16247;DHT22;8231;50.866;7.944;2022-07-22T00:28:48;16.80;99.90
16247;DHT22;8231;50.866;7.944;2022-07-22T00:31:16;16.80;99.90
16247;DHT22;8231;50.866;7.944;2022-07-22T00:33:46;16.90;99.90
16247;DHT22;8231;50.866;7.944;2022-07-22T00:36:14;16.80;99.90
16247;DHT22;8231;50.866;7.944;2022-07-22T00:38:43;16.90;99.90
16247;DHT22;8231;50.866;7.944;2022-07-22T00:41:11;16.90;99.90
16247;DHT22;8231;50.866;7.944;2022-07-22T00:43:50;16.90;99.90
16247;DHT22;8231;50.866;7.944;2022-07-22T00:46:19;16.90;99.90
16247;DHT22;8231;50.866;7.944;2022-07-22T00:48:49;16.80;99.90
16247;DHT22;8231;50.866;7.944;2022-07-22T00:51:17;16.80;99.90
16247;DHT22;8231;50.866;7.944;2022-07-22T00:53:46;16.80;99.90
16247;DHT22;8231;50.866;7.944;2022-07-22T00:56:15;16.80;99.90
16247;DHT22;8231;50.866;7.944;2022-07-22T00:58:44;16.80;99.90
16247;DHT22;8231;50.866;7.944;2022-07-22T01:01:13;16.80;99.90
16247;DHT22;8231;50.866;7.944;2022-07-22T01:03:41;16.80;99.90
16247;DHT22;8231;50.866;7.944;2022-07-22T01:06:17;16.80;99.90
16247;DHT22;8231;50.866;7.944;2022-07-22T01:08:45;16.80;99.90
16247;DHT22;8231;50.866;7.944;2022-07-22T01:11:15;16.80;99.90
16247;DHT22;8231;50.866;7.944;2022-07-22T01:13:45;16.90;99.90
16247;DHT22;8231;50.866;7.944;2022-07-22T01:16:14;16.80;99.90
16247;DHT22;8231;50.866;7.944;2022-07-22T01:18:43;16.80;99.90
16247;DHT22;8231;50.866;7.944;2022-07-22T01:21:14;16.80;99.90
16247;DHT22;8231;50.866;7.944;2022-07-22T01:23:43;16.70;99.90
16247;DHT22;8231;50.866;7.944;2022-07-22T01:26:12;16.70;99.90
16247;DHT22;8231;50.866;7.944;2022-07-22T01:28:41;16.70;99.90
16247;DHT22;8231;50.866;7.944;2022-07-22T01:31:10;16.70;99.90
16247;DHT22;8231;50.866;7.944;2022-07-22T01:33:38;16.70;99.90
16247;DHT22;8231;50.866;7.944;2022-07-22T01:36:07;16.70;99.90
16247;DHT22;8231;50.866;7.944;2022-07-22T01:38:37;16.70;99.90
16247;DHT22;8231;50.866;7.944;2022-07-22T01:41:05;16.70;99.90
16247;DHT22;8231;50.866;7.944;2022-07-22T01:43:34;16.70;99.90
16247;DHT22;8231;50.866;7.944;2022-07-22T01:46:02;16.70;99.90
16247;DHT22;8231;50.866;7.944;2022-07-22T01:48:33;16.70;99.90
16247;DHT22;8231;50.866;7.944;2022-07-22T01:51:02;16.60;99.90
16247;DHT22;8231;50.866;7.944;2022-07-22T01:53:30;16.60;99.90
16247;DHT22;8231;50.866;7.944;2022-07-22T01:56:00;16.70;99.90
16247;DHT22;8231;50.866;7.944;2022-07-22T01:58:31;16.70;99.90
16247;DHT22;8231;50.866;7.944;2022-07-22T02:01:07;16.60;99.90
16247;DHT22;8231;50.866;7.944;2022-07-22T02:03:36;16.60;99.90
16247;DHT22;8231;50.866;7.944;2022-07-22T02:06:06;16.60;99.90
16247;DHT22;8231;50.866;7.944;2022-07-22T02:08:35;16.70;99.90
16247;DHT22;8231;50.866;7.944;2022-07-22T02:11:07;16.60;99.90
16247;DHT22;8231;50.866;7.944;2022-07-22T02:13:45;16.70;99.90
16247;DHT22;8231;50.866;7.944;2022-07-22T02:16:13;16.70;99.90
16247;DHT22;8231;50.866;7.944;2022-07-22T02:18:47;16.80;99.90
16247;DHT22;8231;50.866;7.944;2022-07-22T02:21:15;16.70;99.90
16247;DHT22;8231;50.866;7.944;2022-07-22T02:23:44;16.70;99.90
16247;DHT22;8231;50.866;7.944;2022-07-22T02:26:14;16.70;99.90
16247;DHT22;8231;50.866;7.944;2022-07-22T02:28:44;16.70;99.90
16247;DHT22;8231;50.866;7.944;2022-07-22T02:31:13;16.70;99.90
16247;DHT22;8231;50.866;7.944;2022-07-22T02:33:41;16.70;99.90
16247;DHT22;8231;50.866;7.944;2022-07-22T02:36:09;16.70;99.90
16247;DHT22;8231;50.866;7.944;2022-07-22T02:38:38;16.60;99.90
16247;DHT22;8231;50.866;7.944;2022-07-22T02:41:06;16.70;99.90
16247;DHT22;8231;50.866;7.944;2022-07-22T02:43:40;16.70;99.90
16247;DHT22;8231;50.866;7.944;2022-07-22T02:46:08;16.70;99.90
16247;DHT22;8231;50.866;7.944;2022-07-22T02:48:36;16.70;99.90
16247;DHT22;8231;50.866;7.944;2022-07-22T02:51:07;16.70;99.90
16247;DHT22;8231;50.866;7.944;2022-07-22T02:53:35;16.70;99.90
16247;DHT22;8231;50.866;7.944;2022-07-22T02:56:05;16.70;99.90
16247;DHT22;8231;50.866;7.944;2022-07-22T02:58:33;16.70;99.90
16247;DHT22;8231;50.866;7.944;2022-07-22T03:01:03;16.70;99.90
16247;DHT22;8231;50.866;7.944;2022-07-22T03:03:39;16.70;99.90
16247;DHT22;8231;50.866;7.944;2022-07-22T03:06:08;16.70;99.90
16247;DHT22;8231;50.866;7.944;2022-07-22T03:08:41;16.70;99.90
16247;DHT22;8231;50.866;7.944;2022-07-22T03:11:11;16.60;99.90
16247;DHT22;8231;50.866;7.944;2022-07-22T03:13:39;16.60;99.90
16247;DHT22;8231;50.866;7.944;2022-07-22T03:16:10;16.60;99.90
16247;DHT22;8231;50.866;7.944;2022-07-22T03:18:38;16.50;99.90
16247;DHT22;8231;50.866;7.944;2022-07-22T03:21:07;16.50;99.90
16247;DHT22;8231;50.866;7.944;2022-07-22T03:23:35;16.50;99.90
16247;DHT22;8231;50.866;7.944;2022-07-22T03:26:03;16.60;99.90
16247;DHT22;8231;50.866;7.944;2022-07-22T03:28:31;16.60;99.90
16247;DHT22;8231;50.866;7.944;2022-07-22T03:31:00;16.60;99.90
16247;DHT22;8231;50.866;7.944;2022-07-22T03:33:29;16.50;99.90
16247;DHT22;8231;50.866;7.944;2022-07-22T03:35:57;16.50;99.90
16247;DHT22;8231;50.866;7.944;2022-07-22T03:38:27;16.50;99.90
16247;DHT22;8231;50.866;7.944;2022-07-22T03:40:56;16.50;99.90
16247;DHT22;8231;50.866;7.944;2022-07-22T03:43:24;16.40;99.90
16247;DHT22;8231;50.866;7.944;2022-07-22T03:45:53;16.40;99.90
16247;DHT22;8231;50.866;7.944;2022-07-22T03:48:21;16.40;99.90
16247;DHT22;8231;50.866;7.944;2022-07-22T03:50:50;16.40;99.90
16247;DHT22;8231;50.866;7.944;2022-07-22T03:53:19;16.40;99.90
16247;DHT22;8231;50.866;7.944;2022-07-22T03:55:47;16.40;99.90
16247;DHT22;8231;50.866;7.944;2022-07-22T03:58:16;16.50;99.90
16247;DHT22;8231;50.866;7.944;2022-07-22T04:00:45;16.50;99.90
16247;DHT22;8231;50.866;7.944;2022-07-22T04:03:13;16.50;99.90
16247;DHT22;8231;50.866;7.944;2022-07-22T04:06:11;16.50;99.90
16247;DHT22;8231;50.866;7.944;2022-07-22T04:08:56;16.50;99.90
16247;DHT22;8231;50.866;7.944;2022-07-22T04:11:26;16.50;99.90
16247;DHT22;8231;50.866;7.944;2022-07-22T04:13:54;16.50;99.90
16247;DHT22;8231;50.866;7.944;2022-07-22T04:16:23;16.50;99.90
16247;DHT22;8231;50.866;7.944;2022-07-22T04:18:58;16.60;99.90
16247;DHT22;8231;50.866;7.944;2022-07-22T04:21:40;16.60;99.90
16247;DHT22;8231;50.866;7.944;2022-07-22T04:24:10;16.60;99.90
16247;DHT22;8231;50.866;7.944;2022-07-22T04:26:38;16.60;99.90
16247;DHT22;8231;50.866;7.944;2022-07-22T04:29:07;16.60;99.90
16247;DHT22;8231;50.866;7.944;2022-07-22T04:31:35;16.60;99.90
16247;DHT22;8231;50.866;7.944;2022-07-22T04:34:16;16.60;99.90
16247;DHT22;8231;50.866;7.944;2022-07-22T04:36:47;16.60;99.90
16247;DHT22;8231;50.866;7.944;2022-07-22T04:39:16;16.60;99.90
16247;DHT22;8231;50.866;7.944;2022-07-22T04:41:50;16.60;99.90
16247;DHT22;8231;50.866;7.944;2022-07-22T04:44:19;16.60;99.90
16247;DHT22;8231;50.866;7.944;2022-07-22T04:46:47;16.60;99.90
16247;DHT22;8231;50.866;7.944;2022-07-22T04:49:16;16.60;99.90
16247;DHT22;8231;50.866;7.944;2022-07-22T04:51:44;16.60;99.90
16247;DHT22;8231;50.866;7.944;2022-07-22T04:54:23;16.70;99.90
16247;DHT22;8231;50.866;7.944;2022-07-22T04:56:54;16.60;99.90
16247;DHT22;8231;50.866;7.944;2022-07-22T04:59:23;16.70;99.90
16247;DHT22;8231;50.866;7.944;2022-07-22T05:01:51;16.70;99.90
16247;DHT22;8231;50.866;7.944;2022-07-22T05:04:19;16.70;99.90
16247;DHT22;8231;50.866;7.944;2022-07-22T05:06:47;16.80;99.90
16247;DHT22;8231;50.866;7.944;2022-07-22T05:09:15;16.80;99.90
16247;DHT22;8231;50.866;7.944;2022-07-22T05:11:45;16.80;99.90
16247;DHT22;8231;50.866;7.944;2022-07-22T05:14:17;16.80;99.90
16247;DHT22;8231;50.866;7.944;2022-07-22T05:16:45;16.80;99.90
16247;DHT22;8231;50.866;7.944;2022-07-22T05:19:13;16.80;99.90
16247;DHT22;8231;50.866;7.944;2022-07-22T05:21:42;16.80;99.90
16247;DHT22;8231;50.866;7.944;2022-07-22T05:24:10;16.90;99.90
16247;DHT22;8231;50.866;7.944;2022-07-22T05:26:39;16.90;99.90
16247;DHT22;8231;50.866;7.944;2022-07-22T05:29:08;17.00;99.90
16247;DHT22;8231;50.866;7.944;2022-07-22T05:31:37;17.00;99.90
16247;DHT22;8231;50.866;7.944;2022-07-22T05:34:05;17.00;99.90
16247;DHT22;8231;50.866;7.944;2022-07-22T05:36:40;17.00;99.90
16247;DHT22;8231;50.866;7.944;2022-07-22T05:39:11;17.00;99.90
16247;DHT22;8231;50.866;7.944;2022-07-22T05:41:39;17.00;99.90
16247;DHT22;8231;50.866;7.944;2022-07-22T05:44:09;17.00;99.90
16247;DHT22;8231;50.866;7.944;2022-07-22T05:46:37;17.00;99.90
16247;DHT22;8231;50.866;7.944;2022-07-22T05:49:06;17.20;99.90
16247;DHT22;8231;50.866;7.944;2022-07-22T05:51:46;17.10;99.90
16247;DHT22;8231;50.866;7.944;2022-07-22T05:54:14;17.10;99.90
16247;DHT22;8231;50.866;7.944;2022-07-22T05:56:43;17.10;99.90
16247;DHT22;8231;50.866;7.944;2022-07-22T05:59:13;17.10;99.90
16247;DHT22;8231;50.866;7.944;2022-07-22T06:01:43;17.10;99.90
16247;DHT22;8231;50.866;7.944;2022-07-22T06:04:30;17.10;99.90
16247;DHT22;8231;50.866;7.944;2022-07-22T06:07:00;17.10;99.90
16247;DHT22;8231;50.866;7.944;2022-07-22T06:09:28;17.10;99.90
16247;DHT22;8231;50.866;7.944;2022-07-22T06:11:56;17.10;99.90
16247;DHT22;8231;50.866;7.944;2022-07-22T06:14:26;17.10;99.90
16247;DHT22;8231;50.866;7.944;2022-07-22T06:16:54;17.10;99.90
16247;DHT22;8231;50.866;7.944;2022-07-22T06:19:22;17.10;99.90
16247;DHT22;8231;50.866;7.944;2022-07-22T06:21:51;17.20;99.90
16247;DHT22;8231;50.866;7.944;2022-07-22T06:24:19;17.20;99.90
16247;DHT22;8231;50.866;7.944;2022-07-22T06:26:52;17.30;99.90
16247;DHT22;8231;50.866;7.944;2022-07-22T06:29:20;17.30;99.90
16247;DHT22;8231;50.866;7.944;2022-07-22T06:31:50;17.30;99.90
16247;DHT22;8231;50.866;7.944;2022-07-22T06:34:18;17.30;99.90
16247;DHT22;8231;50.866;7.944;2022-07-22T06:37:02;17.40;99.90
16247;DHT22;8231;50.866;7.944;2022-07-22T06:39:30;17.50;99.90
16247;DHT22;8231;50.866;7.944;2022-07-22T06:42:20;17.50;99.90
16247;DHT22;8231;50.866;7.944;2022-07-22T06:45:21;17.60;99.90
16247;DHT22;8231;50.866;7.944;2022-07-22T06:48:09;17.80;99.90
16247;DHT22;8231;50.866;7.944;2022-07-22T06:50:38;17.90;99.90
16247;DHT22;8231;50.866;7.944;2022-07-22T06:53:12;18.00;99.90
16247;DHT22;8231;50.866;7.944;2022-07-22T06:55:41;18.10;99.90
16247;DHT22;8231;50.866;7.944;2022-07-22T06:58:11;18.30;99.90
16247;DHT22;8231;50.866;7.944;2022-07-22T07:00:39;18.40;99.90
16247;DHT22;8231;50.866;7.944;2022-07-22T07:03:31;18.60;99.90
16247;DHT22;8231;50.866;7.944;2022-07-22T07:06:07;18.80;99.90
16247;DHT22;8231;50.866;7.944;2022-07-22T07:08:56;18.90;99.90
16247;DHT22;8231;50.866;7.944;2022-07-22T07:11:26;18.90;99.90
16247;DHT22;8231;50.866;7.944;2022-07-22T07:13:55;19.00;99.90
16247;DHT22;8231;50.866;7.944;2022-07-22T07:16:23;19.10;99.90
16247;DHT22;8231;50.866;7.944;2022-07-22T07:18:54;19.20;99.90
16247;DHT22;8231;50.866;7.944;2022-07-22T07:21:22;19.20;99.90
16247;DHT22;8231;50.866;7.944;2022-07-22T07:23:51;19.20;99.90
16247;DHT22;8231;50.866;7.944;2022-07-22T07:26:19;19.20;99.90
16247;DHT22;8231;50.866;7.944;2022-07-22T07:28:48;19.20;99.90
16247;DHT22;8231;50.866;7.944;2022-07-22T07:31:33;19.30;99.90
16247;DHT22;8231;50.866;7.944;2022-07-22T07:34:08;19.30;99.90
16247;DHT22;8231;50.866;7.944;2022-07-22T07:36:36;19.40;99.90
16247;DHT22;8231;50.866;7.944;2022-07-22T07:39:04;19.30;99.90
16247;DHT22;8231;50.866;7.944;2022-07-22T07:41:33;19.40;99.90
16247;DHT22;8231;50.866;7.944;2022-07-22T07:44:01;19.20;99.90
16247;DHT22;8231;50.866;7.944;2022-07-22T07:46:30;19.30;99.90
16247;DHT22;8231;50.866;7.944;2022-07-22T07:48:58;19.50;99.90
16247;DHT22;8231;50.866;7.944;2022-07-22T07:51:29;19.50;99.90
16247;DHT22;8231;50.866;7.944;2022-07-22T07:53:57;19.60;99.90
16247;DHT22;8231;50.866;7.944;2022-07-22T07:56:25;19.60;99.90
16247;DHT22;8231;50.866;7.944;2022-07-22T07:58:53;19.60;99.90
16247;DHT22;8231;50.866;7.944;2022-07-22T08:01:41;19.70;99.90
16247;DHT22;8231;50.866;7.944;2022-07-22T08:04:28;19.60;99.90
16247;DHT22;8231;50.866;7.944;2022-07-22T08:07:06;19.50;99.90
16247;DHT22;8231;50.866;7.944;2022-07-22T08:09:37;19.40;99.90
16247;DHT22;8231;50.866;7.944;2022-07-22T08:12:14;19.60;99.90
16247;DHT22;8231;50.866;7.944;2022-07-22T08:15:14;19.70;99.90
16247;DHT22;8231;50.866;7.944;2022-07-22T08:17:50;19.70;99.90
16247;DHT22;8231;50.866;7.944;2022-07-22T08:20:19;19.70;99.90
16247;DHT22;8231;50.866;7.944;2022-07-22T08:22:51;19.90;99.90
16247;DHT22;8231;50.866;7.944;2022-07-22T08:25:21;20.00;99.90
16247;DHT22;8231;50.866;7.944;2022-07-22T08:27:50;20.00;99.90
16247;DHT22;8231;50.866;7.944;2022-07-22T08:30:19;20.00;99.90
16247;DHT22;8231;50.866;7.944;2022-07-22T08:32:50;19.90;99.90
16247;DHT22;8231;50.866;7.944;2022-07-22T08:35:18;20.00;99.90
16247;DHT22;8231;50.866;7.944;2022-07-22T08:37:46;20.20;99.90
16247;DHT22;8231;50.866;7.944;2022-07-22T08:40:17;20.20;99.90
16247;DHT22;8231;50.866;7.944;2022-07-22T08:42:47;20.30;99.90
16247;DHT22;8231;50.866;7.944;2022-07-22T08:45:18;20.10;99.90
16247;DHT22;8231;50.866;7.944;2022-07-22T08:47:49;20.10;99.90
16247;DHT22;8231;50.866;7.944;2022-07-22T08:50:32;20.10;99.90
16247;DHT22;8231;50.866;7.944;2022-07-22T08:53:04;20.20;99.90
16247;DHT22;8231;50.866;7.944;2022-07-22T08:55:34;20.30;99.90
16247;DHT22;8231;50.866;7.944;2022-07-22T08:58:07;20.40;99.90
16247;DHT22;8231;50.866;7.944;2022-07-22T09:00:35;20.50;99.90
16247;DHT22;8231;50.866;7.944;2022-07-22T09:03:16;20.70;99.90
16247;DHT22;8231;50.866;7.944;2022-07-22T09:05:48;20.80;99.90
16247;DHT22;8231;50.866;7.944;2022-07-22T09:08:17;20.80;99.90
16247;DHT22;8231;50.866;7.944;2022-07-22T09:10:55;20.90;99.90
16247;DHT22;8231;50.866;7.944;2022-07-22T09:13:43;20.90;99.90
16247;DHT22;8231;50.866;7.944;2022-07-22T09:16:40;20.80;99.90
16247;DHT22;8231;50.866;7.944;2022-07-22T09:19:32;21.00;99.90
16247;DHT22;8231;50.866;7.944;2022-07-22T09:22:34;21.20;99.90
16247;DHT22;8231;50.866;7.944;2022-07-22T09:25:22;21.30;99.90
16247;DHT22;8231;50.866;7.944;2022-07-22T09:28:18;21.40;99.90
16247;DHT22;8231;50.866;7.944;2022-07-22T09:31:23;21.70;99.90
16247;DHT22;8231;50.866;7.944;2022-07-22T09:34:29;22.40;99.90
16247;DHT22;8231;50.866;7.944;2022-07-22T09:37:07;23.30;99.90
16247;DHT22;8231;50.866;7.944;2022-07-22T09:39:35;23.90;99.90
16247;DHT22;8231;50.866;7.944;2022-07-22T09:42:05;24.10;99.90
16247;DHT22;8231;50.866;7.944;2022-07-22T09:44:35;24.10;99.90
16247;DHT22;8231;50.866;7.944;2022-07-22T09:47:27;24.20;99.90
16247;DHT22;8231;50.866;7.944;2022-07-22T09:50:34;24.20;99.90
16247;DHT22;8231;50.866;7.944;2022-07-22T09:53:22;24.20;99.90
16247;DHT22;8231;50.866;7.944;2022-07-22T09:56:10;24.20;99.90
16247;DHT22;8231;50.866;7.944;2022-07-22T09:58:38;23.90;99.90
16247;DHT22;8231;50.866;7.944;2022-07-22T10:01:23;23.90;99.90
16247;DHT22;8231;50.866;7.944;2022-07-22T10:03:52;23.70;99.90
16247;DHT22;8231;50.866;7.944;2022-07-22T10:06:23;23.60;99.90
16247;DHT22;8231;50.866;7.944;2022-07-22T10:08:51;23.70;99.90
16247;DHT22;8231;50.866;7.944;2022-07-22T10:11:30;23.30;99.90
16247;DHT22;8231;50.866;7.944;2022-07-22T10:13:59;23.50;99.90
16247;DHT22;8231;50.866;7.944;2022-07-22T10:16:30;23.70;99.90
16247;DHT22;8231;50.866;7.944;2022-07-22T10:18:58;23.90;99.90
16247;DHT22;8231;50.866;7.944;2022-07-22T10:21:31;24.10;99.90
16247;DHT22;8231;50.866;7.944;2022-07-22T10:24:08;24.20;99.90
16247;DHT22;8231;50.866;7.944;2022-07-22T10:26:48;24.00;99.90
16247;DHT22;8231;50.866;7.944;2022-07-22T10:29:25;24.10;99.90
16247;DHT22;8231;50.866;7.944;2022-07-22T10:32:26;24.50;99.90
16247;DHT22;8231;50.866;7.944;2022-07-22T10:35:22;25.00;99.90
16247;DHT22;8231;50.866;7.944;2022-07-22T10:38:00;25.20;99.90
16247;DHT22;8231;50.866;7.944;2022-07-22T10:40:30;25.10;99.90
16247;DHT22;8231;50.866;7.944;2022-07-22T10:43:08;24.70;99.90
16247;DHT22;8231;50.866;7.944;2022-07-22T10:45:40;24.70;99.90
16247;DHT22;8231;50.866;7.944;2022-07-22T10:48:13;24.70;99.90
16247;DHT22;8231;50.866;7.944;2022-07-22T10:50:47;24.50;99.90
16247;DHT22;8231;50.866;7.944;2022-07-22T10:53:19;24.60;99.90
16247;DHT22;8231;50.866;7.944;2022-07-22T10:56:06;24.80;99.90
16247;DHT22;8231;50.866;7.944;2022-07-22T10:58:43;25.10;99.90
16247;DHT22;8231;50.866;7.944;2022-07-22T11:01:13;25.20;99.90
16247;DHT22;8231;50.866;7.944;2022-07-22T11:03:44;25.00;99.90
16247;DHT22;8231;50.866;7.944;2022-07-22T11:06:15;25.00;99.90
16247;DHT22;8231;50.866;7.944;2022-07-22T11:08:44;25.00;99.90
16247;DHT22;8231;50.866;7.944;2022-07-22T11:11:13;25.70;99.90
16247;DHT22;8231;50.866;7.944;2022-07-22T11:13:44;25.90;99.90
16247;DHT22;8231;50.866;7.944;2022-07-22T11:16:14;26.20;99.90
16247;DHT22;8231;50.866;7.944;2022-07-22T11:18:52;26.50;99.90
16247;DHT22;8231;50.866;7.944;2022-07-22T11:21:23;26.50;99.90
16247;DHT22;8231;50.866;7.944;2022-07-22T11:23:52;26.40;99.90
16247;DHT22;8231;50.866;7.944;2022-07-22T11:26:25;26.50;99.90
16247;DHT22;8231;50.866;7.944;2022-07-22T11:28:53;26.70;99.90
16247;DHT22;8231;50.866;7.944;2022-07-22T11:31:22;26.80;99.90
16247;DHT22;8231;50.866;7.944;2022-07-22T11:33:52;26.80;99.90
16247;DHT22;8231;50.866;7.944;2022-07-22T11:36:32;26.60;99.90
16247;DHT22;8231;50.866;7.944;2022-07-22T11:39:01;25.80;99.90
16247;DHT22;8231;50.866;7.944;2022-07-22T11:41:30;25.80;99.90
16247;DHT22;8231;50.866;7.944;2022-07-22T11:43:59;26.20;99.90
16247;DHT22;8231;50.866;7.944;2022-07-22T11:46:28;26.60;99.90
16247;DHT22;8231;50.866;7.944;2022-07-22T11:49:03;27.10;99.90
16247;DHT22;8231;50.866;7.944;2022-07-22T11:51:33;27.40;99.90
16247;DHT22;8231;50.866;7.944;2022-07-22T11:54:02;27.30;99.90
16247;DHT22;8231;50.866;7.944;2022-07-22T11:56:31;27.20;99.90
16247;DHT22;8231;50.866;7.944;2022-07-22T11:59:00;27.20;99.90
16247;DHT22;8231;50.866;7.944;2022-07-22T12:01:34;27.80;99.90
16247;DHT22;8231;50.866;7.944;2022-07-22T12:04:06;27.90;99.90
16247;DHT22;8231;50.866;7.944;2022-07-22T12:06:38;27.90;99.90
16247;DHT22;8231;50.866;7.944;2022-07-22T12:09:08;28.00;98.70
16247;DHT22;8231;50.866;7.944;2022-07-22T12:11:39;28.00;99.90
16247;DHT22;8231;50.866;7.944;2022-07-22T12:14:09;27.80;99.20
16247;DHT22;8231;50.866;7.944;2022-07-22T12:16:43;28.30;98.00
16247;DHT22;8231;50.866;7.944;2022-07-22T12:19:13;28.10;98.30
16247;DHT22;8231;50.866;7.944;2022-07-22T12:21:50;28.30;97.10
16247;DHT22;8231;50.866;7.944;2022-07-22T12:24:26;28.30;99.00
16247;DHT22;8231;50.866;7.944;2022-07-22T12:26:56;28.60;99.20
16247;DHT22;8231;50.866;7.944;2022-07-22T12:29:26;29.20;96.90
16247;DHT22;8231;50.866;7.944;2022-07-22T12:31:58;29.70;95.90
16247;DHT22;8231;50.866;7.944;2022-07-22T12:34:39;29.50;94.00
16247;DHT22;8231;50.866;7.944;2022-07-22T12:37:13;29.60;95.50
16247;DHT22;8231;50.866;7.944;2022-07-22T12:39:53;29.70;92.60
16247;DHT22;8231;50.866;7.944;2022-07-22T12:42:22;29.60;93.90
16247;DHT22;8231;50.866;7.944;2022-07-22T12:44:52;30.00;93.10
16247;DHT22;8231;50.866;7.944;2022-07-22T12:47:40;29.80;93.70
16247;DHT22;8231;50.866;7.944;2022-07-22T12:50:21;29.50;94.00
16247;DHT22;8231;50.866;7.944;2022-07-22T12:52:51;29.00;93.90
16247;DHT22;8231;50.866;7.944;2022-07-22T12:55:41;28.70;94.30
16247;DHT22;8231;50.866;7.944;2022-07-22T12:58:10;28.10;95.10
16247;DHT22;8231;50.866;7.944;2022-07-22T13:00:40;28.10;95.70
16247;DHT22;8231;50.866;7.944;2022-07-22T13:03:09;28.00;95.30
16247;DHT22;8231;50.866;7.944;2022-07-22T13:05:39;28.00;95.50
16247;DHT22;8231;50.866;7.944;2022-07-22T13:08:08;27.90;95.50
16247;DHT22;8231;50.866;7.944;2022-07-22T13:10:36;27.70;95.50
16247;DHT22;8231;50.866;7.944;2022-07-22T13:13:05;28.10;96.60
16247;DHT22;8231;50.866;7.944;2022-07-22T13:15:34;28.50;95.70
16247;DHT22;8231;50.866;7.944;2022-07-22T13:18:03;28.50;95.50
16247;DHT22;8231;50.866;7.944;2022-07-22T13:20:31;28.40;96.50
16247;DHT22;8231;50.866;7.944;2022-07-22T13:23:01;28.40;95.40
16247;DHT22;8231;50.866;7.944;2022-07-22T13:25:29;28.70;95.30
16247;DHT22;8231;50.866;7.944;2022-07-22T13:27:59;28.60;95.70
16247;DHT22;8231;50.866;7.944;2022-07-22T13:30:27;28.60;95.90
16247;DHT22;8231;50.866;7.944;2022-07-22T13:32:56;28.70;95.20
16247;DHT22;8231;50.866;7.944;2022-07-22T13:35:24;28.40;94.40
16247;DHT22;8231;50.866;7.944;2022-07-22T13:37:52;28.30;95.90
16247;DHT22;8231;50.866;7.944;2022-07-22T13:40:22;28.40;94.40
16247;DHT22;8231;50.866;7.944;2022-07-22T13:42:50;28.20;94.40
16247;DHT22;8231;50.866;7.944;2022-07-22T13:45:18;28.30;94.20
16247;DHT22;8231;50.866;7.944;2022-07-22T13:47:47;28.40;93.90
16247;DHT22;8231;50.866;7.944;2022-07-22T13:50:15;28.10;94.20
16247;DHT22;8231;50.866;7.944;2022-07-22T13:52:43;27.90;95.30
16247;DHT22;8231;50.866;7.944;2022-07-22T13:55:14;28.00;95.30
16247;DHT22;8231;50.866;7.944;2022-07-22T13:57:43;27.90;94.30
16247;DHT22;8231;50.866;7.944;2022-07-22T14:00:14;27.90;93.90
16247;DHT22;8231;50.866;7.944;2022-07-22T14:02:43;27.90;94.40
16247;DHT22;8231;50.866;7.944;2022-07-22T14:05:11;28.10;94.70
16247;DHT22;8231;50.866;7.944;2022-07-22T14:07:41;28.00;94.90
16247;DHT22;8231;50.866;7.944;2022-07-22T14:10:10;28.50;95.20
16247;DHT22;8231;50.866;7.944;2022-07-22T14:12:38;28.50;94.10
16247;DHT22;8231;50.866;7.944;2022-07-22T14:15:09;28.20;93.80
16247;DHT22;8231;50.866;7.944;2022-07-22T14:17:39;28.20;93.50
16247;DHT22;8231;50.866;7.944;2022-07-22T14:20:08;28.30;93.60
16247;DHT22;8231;50.866;7.944;2022-07-22T14:22:37;28.20;93.70
16247;DHT22;8231;50.866;7.944;2022-07-22T14:25:05;28.40;92.60
16247;DHT22;8231;50.866;7.944;2022-07-22T14:27:33;28.40;93.60
16247;DHT22;8231;50.866;7.944;2022-07-22T14:30:02;28.50;93.10
16247;DHT22;8231;50.866;7.944;2022-07-22T14:32:31;28.30;93.00
16247;DHT22;8231;50.866;7.944;2022-07-22T14:34:59;28.20;93.00
16247;DHT22;8231;50.866;7.944;2022-07-22T14:37:28;28.20;93.60
16247;DHT22;8231;50.866;7.944;2022-07-22T14:39:57;28.60;92.60
16247;DHT22;8231;50.866;7.944;2022-07-22T14:42:28;28.40;92.10
16247;DHT22;8231;50.866;7.944;2022-07-22T14:44:56;28.30;92.50
16247;DHT22;8231;50.866;7.944;2022-07-22T14:47:24;28.10;91.70
16247;DHT22;8231;50.866;7.944;2022-07-22T14:49:54;28.20;92.40
16247;DHT22;8231;50.866;7.944;2022-07-22T14:52:23;28.40;92.10
16247;DHT22;8231;50.866;7.944;2022-07-22T14:54:51;28.30;92.20
16247;DHT22;8231;50.866;7.944;2022-07-22T14:57:19;28.40;92.30
16247;DHT22;8231;50.866;7.944;2022-07-22T14:59:47;28.10;92.70
16247;DHT22;8231;50.866;7.944;2022-07-22T15:02:15;28.40;91.00
16247;DHT22;8231;50.866;7.944;2022-07-22T15:04:43;28.40;91.60
16247;DHT22;8231;50.866;7.944;2022-07-22T15:07:13;28.40;92.50
16247;DHT22;8231;50.866;7.944;2022-07-22T15:09:41;28.50;92.30
16247;DHT22;8231;50.866;7.944;2022-07-22T15:12:09;28.40;92.40
16247;DHT22;8231;50.866;7.944;2022-07-22T15:14:57;28.30;91.80
16247;DHT22;8231;50.866;7.944;2022-07-22T15:17:25;28.10;92.10
16247;DHT22;8231;50.866;7.944;2022-07-22T15:19:53;28.20;92.80
16247;DHT22;8231;50.866;7.944;2022-07-22T15:22:23;28.30;92.70
16247;DHT22;8231;50.866;7.944;2022-07-22T15:24:51;28.10;92.30
16247;DHT22;8231;50.866;7.944;2022-07-22T15:27:20;28.10;92.20
16247;DHT22;8231;50.866;7.944;2022-07-22T15:29:52;28.10;93.70
16247;DHT22;8231;50.866;7.944;2022-07-22T15:32:20;27.60;92.70
16247;DHT22;8231;50.866;7.944;2022-07-22T15:34:49;27.80;92.90
16247;DHT22;8231;50.866;7.944;2022-07-22T15:37:17;27.90;93.30
16247;DHT22;8231;50.866;7.944;2022-07-22T15:39:48;27.90;91.80
16247;DHT22;8231;50.866;7.944;2022-07-22T15:42:16;28.10;91.40
16247;DHT22;8231;50.866;7.944;2022-07-22T15:44:44;28.00;92.90
16247;DHT22;8231;50.866;7.944;2022-07-22T15:47:12;27.70;91.70
16247;DHT22;8231;50.866;7.944;2022-07-22T15:49:40;27.60;92.40
16247;DHT22;8231;50.866;7.944;2022-07-22T15:52:19;27.60;92.60
16247;DHT22;8231;50.866;7.944;2022-07-22T15:54:50;27.50;92.60
16247;DHT22;8231;50.866;7.944;2022-07-22T15:57:19;27.40;93.00
16247;DHT22;8231;50.866;7.944;2022-07-22T16:00:06;27.50;92.40
16247;DHT22;8231;50.866;7.944;2022-07-22T16:02:43;27.20;91.40
16247;DHT22;8231;50.866;7.944;2022-07-22T16:05:11;27.10;91.90
16247;DHT22;8231;50.866;7.944;2022-07-22T16:07:39;27.20;91.80
16247;DHT22;8231;50.866;7.944;2022-07-22T16:10:09;27.10;91.20
16247;DHT22;8231;50.866;7.944;2022-07-22T16:12:38;27.10;91.30
16247;DHT22;8231;50.866;7.944;2022-07-22T16:15:06;27.20;91.00